sensor_id;sensor_type;location;lat;lon;timestamp;P1;durP1;ratioP1;P2;durP2;ratioP2
51732;SDS011;39139;53.144;6.244;2023-06-05T00:01:37;11.38;;;7.05;;
51732;SDS011;39139;53.144;6.244;2023-06-05T00:04:03;10.48;;;7.40;;
51732;SDS011;39139;53.144;6.244;2023-06-05T00:06:30;8.73;;;7.47;;
51732;SDS011;39139;53.144;6.244;2023-06-05T00:08:56;8.32;;;7.43;;
51732;SDS011;39139;53.144;6.244;2023-06-05T00:11:23;9.88;;;7.70;;
51732;SDS011;39139;53.144;6.244;2023-06-05T00:13:48;8.80;;;6.97;;
51732;SDS011;39139;53.144;6.244;2023-06-05T00:16:17;10.52;;;7.07;;
51732;SDS011;39139;53.144;6.244;2023-06-05T00:18:43;9.65;;;7.78;;
51732;SDS011;39139;53.144;6.244;2023-06-05T00:21:10;8.27;;;7.30;;
51732;SDS011;39139;53.144;6.244;2023-06-05T00:23:38;8.20;;;7.28;;
51732;SDS011;39139;53.144;6.244;2023-06-05T00:26:04;9.93;;;6.53;;
51732;SDS011;39139;53.144;6.244;2023-06-05T00:28:30;10.43;;;7.53;;
51732;SDS011;39139;53.144;6.244;2023-06-05T00:30:55;7.75;;;6.82;;
51732;SDS011;39139;53.144;6.244;2023-06-05T00:33:21;13.27;;;7.78;;
51732;SDS011;39139;53.144;6.244;2023-06-05T00:35:47;10.25;;;7.68;;
51732;SDS011;39139;53.144;6.244;2023-06-05T00:38:12;9.65;;;7.18;;
51732;SDS011;39139;53.144;6.244;2023-06-05T00:40:38;8.65;;;7.38;;
51732;SDS011;39139;53.144;6.244;2023-06-05T00:43:04;8.35;;;7.53;;
51732;SDS011;39139;53.144;6.244;2023-06-05T00:45:31;12.07;;;7.78;;
51732;SDS011;39139;53.144;6.244;2023-06-05T00:47:56;8.02;;;6.70;;
51732;SDS011;39139;53.144;6.244;2023-06-05T00:50:22;8.95;;;7.43;;
51732;SDS011;39139;53.144;6.244;2023-06-05T00:52:48;8.35;;;7.30;;
51732;SDS011;39139;53.144;6.244;2023-06-05T00:55:15;11.52;;;7.15;;
51732;SDS011;39139;53.144;6.244;2023-06-05T00:57:41;8.80;;;7.40;;
51732;SDS011;39139;53.144;6.244;2023-06-05T01:00:09;10.23;;;7.85;;
51732;SDS011;39139;53.144;6.244;2023-06-05T01:02:37;8.52;;;6.95;;
51732;SDS011;39139;53.144;6.244;2023-06-05T01:05:05;9.55;;;7.40;;
51732;SDS011;39139;53.144;6.244;2023-06-05T01:07:34;7.72;;;6.78;;
51732;SDS011;39139;53.144;6.244;2023-06-05T01:10:05;8.88;;;7.10;;
51732;SDS011;39139;53.144;6.244;2023-06-05T01:12:35;10.32;;;7.30;;
51732;SDS011;39139;53.144;6.244;2023-06-05T01:15:06;9.90;;;7.47;;
51732;SDS011;39139;53.144;6.244;2023-06-05T01:17:33;8.45;;;6.78;;
51732;SDS011;39139;53.144;6.244;2023-06-05T01:19:59;7.38;;;6.30;;
51732;SDS011;39139;53.144;6.244;2023-06-05T01:22:27;8.30;;;7.30;;
51732;SDS011;39139;53.144;6.244;2023-06-05T01:24:53;8.88;;;6.63;;
51732;SDS011;39139;53.144;6.244;2023-06-05T01:27:27;7.70;;;6.88;;
51732;SDS011;39139;53.144;6.244;2023-06-05T01:30:06;9.25;;;6.80;;
51732;SDS011;39139;53.144;6.244;2023-06-05T01:35:38;11.65;;;7.22;;
51732;SDS011;39139;53.144;6.244;2023-06-05T01:38:05;7.13;;;6.43;;
51732;SDS011;39139;53.144;6.244;2023-06-05T01:40:31;9.85;;;5.72;;
51732;SDS011;39139;53.144;6.244;2023-06-05T01:42:59;10.40;;;6.43;;
51732;SDS011;39139;53.144;6.244;2023-06-05T01:45:27;8.45;;;6.05;;
51732;SDS011;39139;53.144;6.244;2023-06-05T01:47:55;7.63;;;6.30;;
51732;SDS011;39139;53.144;6.244;2023-06-05T01:50:22;7.85;;;6.15;;
51732;SDS011;39139;53.144;6.244;2023-06-05T01:52:48;8.25;;;6.13;;
51732;SDS011;39139;53.144;6.244;2023-06-05T01:55:18;9.40;;;6.80;;
51732;SDS011;39139;53.144;6.244;2023-06-05T01:57:48;8.25;;;5.90;;
51732;SDS011;39139;53.144;6.244;2023-06-05T02:00:18;8.10;;;6.88;;
51732;SDS011;39139;53.144;6.244;2023-06-05T02:02:44;8.75;;;7.38;;
51732;SDS011;39139;53.144;6.244;2023-06-05T02:05:13;7.13;;;6.43;;
51732;SDS011;39139;53.144;6.244;2023-06-05T02:07:40;6.80;;;5.90;;
51732;SDS011;39139;53.144;6.244;2023-06-05T02:10:08;8.60;;;7.03;;
51732;SDS011;39139;53.144;6.244;2023-06-05T02:12:35;7.57;;;6.00;;
51732;SDS011;39139;53.144;6.244;2023-06-05T02:15:02;9.73;;;6.55;;
51732;SDS011;39139;53.144;6.244;2023-06-05T02:17:29;7.88;;;6.35;;
51732;SDS011;39139;53.144;6.244;2023-06-05T02:19:55;7.78;;;6.28;;
51732;SDS011;39139;53.144;6.244;2023-06-05T02:22:21;9.15;;;6.72;;
51732;SDS011;39139;53.144;6.244;2023-06-05T02:24:48;6.78;;;6.07;;
51732;SDS011;39139;53.144;6.244;2023-06-05T02:27:16;9.98;;;6.82;;
51732;SDS011;39139;53.144;6.244;2023-06-05T02:29:43;6.63;;;6.03;;
51732;SDS011;39139;53.144;6.244;2023-06-05T02:32:08;7.25;;;6.55;;
51732;SDS011;39139;53.144;6.244;2023-06-05T02:34:35;9.20;;;6.65;;
51732;SDS011;39139;53.144;6.244;2023-06-05T02:37:01;8.50;;;6.80;;
51732;SDS011;39139;53.144;6.244;2023-06-05T02:39:27;8.27;;;7.28;;
51732;SDS011;39139;53.144;6.244;2023-06-05T02:41:55;9.05;;;7.40;;
51732;SDS011;39139;53.144;6.244;2023-06-05T02:44:21;9.35;;;6.68;;
51732;SDS011;39139;53.144;6.244;2023-06-05T02:46:46;9.80;;;7.05;;
51732;SDS011;39139;53.144;6.244;2023-06-05T02:49:12;9.85;;;6.90;;
51732;SDS011;39139;53.144;6.244;2023-06-05T02:51:37;7.70;;;6.90;;
51732;SDS011;39139;53.144;6.244;2023-06-05T02:54:03;8.80;;;7.70;;
51732;SDS011;39139;53.144;6.244;2023-06-05T02:56:29;11.35;;;8.35;;
51732;SDS011;39139;53.144;6.244;2023-06-05T02:58:54;10.20;;;8.57;;
51732;SDS011;39139;53.144;6.244;2023-06-05T03:01:22;12.32;;;8.68;;
51732;SDS011;39139;53.144;6.244;2023-06-05T03:03:48;10.23;;;8.20;;
51732;SDS011;39139;53.144;6.244;2023-06-05T03:06:14;10.13;;;8.32;;
51732;SDS011;39139;53.144;6.244;2023-06-05T03:08:42;10.80;;;8.38;;
51732;SDS011;39139;53.144;6.244;2023-06-05T03:11:08;10.60;;;7.22;;
51732;SDS011;39139;53.144;6.244;2023-06-05T03:13:34;11.27;;;7.65;;
51732;SDS011;39139;53.144;6.244;2023-06-05T03:16:00;8.88;;;7.28;;
51732;SDS011;39139;53.144;6.244;2023-06-05T03:18:29;7.93;;;6.43;;
51732;SDS011;39139;53.144;6.244;2023-06-05T03:20:56;8.93;;;6.78;;
51732;SDS011;39139;53.144;6.244;2023-06-05T03:23:22;10.00;;;7.47;;
51732;SDS011;39139;53.144;6.244;2023-06-05T03:25:55;9.65;;;6.90;;
51732;SDS011;39139;53.144;6.244;2023-06-05T03:28:21;9.63;;;6.85;;
51732;SDS011;39139;53.144;6.244;2023-06-05T03:30:48;8.85;;;5.32;;
51732;SDS011;39139;53.144;6.244;2023-06-05T03:33:14;7.60;;;4.93;;
51732;SDS011;39139;53.144;6.244;2023-06-05T03:35:43;5.65;;;4.53;;
51732;SDS011;39139;53.144;6.244;2023-06-05T03:38:11;4.90;;;4.18;;
51732;SDS011;39139;53.144;6.244;2023-06-05T03:40:37;4.88;;;4.32;;
51732;SDS011;39139;53.144;6.244;2023-06-05T03:43:04;4.60;;;4.20;;
51732;SDS011;39139;53.144;6.244;2023-06-05T03:45:30;5.20;;;4.03;;
51732;SDS011;39139;53.144;6.244;2023-06-05T03:47:56;5.15;;;4.03;;
51732;SDS011;39139;53.144;6.244;2023-06-05T03:50:25;4.43;;;3.42;;
51732;SDS011;39139;53.144;6.244;2023-06-05T03:52:53;3.80;;;3.53;;
51732;SDS011;39139;53.144;6.244;2023-06-05T03:55:30;5.82;;;4.32;;
51732;SDS011;39139;53.144;6.244;2023-06-05T03:58:07;8.45;;;4.13;;
51732;SDS011;39139;53.144;6.244;2023-06-05T04:00:34;4.28;;;3.88;;
51732;SDS011;39139;53.144;6.244;2023-06-05T04:03:00;6.43;;;3.50;;
51732;SDS011;39139;53.144;6.244;2023-06-05T04:05:25;5.75;;;3.60;;
51732;SDS011;39139;53.144;6.244;2023-06-05T04:07:51;4.18;;;3.75;;
51732;SDS011;39139;53.144;6.244;2023-06-05T04:10:17;4.38;;;3.97;;
51732;SDS011;39139;53.144;6.244;2023-06-05T04:12:42;4.10;;;3.80;;
51732;SDS011;39139;53.144;6.244;2023-06-05T04:15:08;4.28;;;3.88;;
51732;SDS011;39139;53.144;6.244;2023-06-05T04:17:35;5.30;;;4.00;;
51732;SDS011;39139;53.144;6.244;2023-06-05T04:20:02;4.00;;;3.40;;
51732;SDS011;39139;53.144;6.244;2023-06-05T04:22:29;4.70;;;3.70;;
51732;SDS011;39139;53.144;6.244;2023-06-05T04:24:55;6.40;;;3.25;;
51732;SDS011;39139;53.144;6.244;2023-06-05T04:27:20;4.50;;;3.55;;
51732;SDS011;39139;53.144;6.244;2023-06-05T04:29:46;6.13;;;3.22;;
51732;SDS011;39139;53.144;6.244;2023-06-05T04:32:14;3.88;;;3.53;;
51732;SDS011;39139;53.144;6.244;2023-06-05T04:34:41;5.85;;;3.75;;
51732;SDS011;39139;53.144;6.244;2023-06-05T04:37:07;3.65;;;3.35;;
51732;SDS011;39139;53.144;6.244;2023-06-05T04:39:32;4.05;;;3.75;;
51732;SDS011;39139;53.144;6.244;2023-06-05T04:41:58;3.83;;;2.65;;
51732;SDS011;39139;53.144;6.244;2023-06-05T04:44:23;5.00;;;3.25;;
51732;SDS011;39139;53.144;6.244;2023-06-05T04:46:49;3.92;;;3.40;;
51732;SDS011;39139;53.144;6.244;2023-06-05T04:49:15;4.07;;;3.33;;
51732;SDS011;39139;53.144;6.244;2023-06-05T04:51:41;3.40;;;2.72;;
51732;SDS011;39139;53.144;6.244;2023-06-05T04:54:08;2.67;;;2.50;;
51732;SDS011;39139;53.144;6.244;2023-06-05T04:56:35;2.90;;;2.70;;
51732;SDS011;39139;53.144;6.244;2023-06-05T04:59:04;3.38;;;2.80;;
51732;SDS011;39139;53.144;6.244;2023-06-05T05:01:29;2.55;;;2.35;;
51732;SDS011;39139;53.144;6.244;2023-06-05T05:03:55;2.95;;;2.72;;
51732;SDS011;39139;53.144;6.244;2023-06-05T05:06:21;4.57;;;2.45;;
51732;SDS011;39139;53.144;6.244;2023-06-05T05:08:47;1.90;;;1.80;;
51732;SDS011;39139;53.144;6.244;2023-06-05T05:11:13;2.28;;;2.17;;
51732;SDS011;39139;53.144;6.244;2023-06-05T05:13:40;2.75;;;2.00;;
51732;SDS011;39139;53.144;6.244;2023-06-05T05:16:06;2.35;;;2.00;;
51732;SDS011;39139;53.144;6.244;2023-06-05T05:21:03;2.75;;;2.55;;
51732;SDS011;39139;53.144;6.244;2023-06-05T05:23:30;2.85;;;1.88;;
51732;SDS011;39139;53.144;6.244;2023-06-05T05:25:56;3.38;;;2.35;;
51732;SDS011;39139;53.144;6.244;2023-06-05T05:28:22;2.40;;;2.20;;
51732;SDS011;39139;53.144;6.244;2023-06-05T05:30:47;2.80;;;2.25;;
51732;SDS011;39139;53.144;6.244;2023-06-05T05:33:13;3.75;;;2.22;;
51732;SDS011;39139;53.144;6.244;2023-06-05T05:35:39;4.07;;;1.95;;
51732;SDS011;39139;53.144;6.244;2023-06-05T05:38:06;2.17;;;2.00;;
51732;SDS011;39139;53.144;6.244;2023-06-05T05:40:31;3.40;;;1.98;;
51732;SDS011;39139;53.144;6.244;2023-06-05T05:42:57;2.80;;;1.73;;
51732;SDS011;39139;53.144;6.244;2023-06-05T05:45:23;2.10;;;1.90;;
51732;SDS011;39139;53.144;6.244;2023-06-05T05:47:48;2.63;;;1.98;;
51732;SDS011;39139;53.144;6.244;2023-06-05T05:50:14;2.08;;;1.88;;
51732;SDS011;39139;53.144;6.244;2023-06-05T05:52:40;2.58;;;2.40;;
51732;SDS011;39139;53.144;6.244;2023-06-05T05:55:08;2.55;;;2.08;;
51732;SDS011;39139;53.144;6.244;2023-06-05T05:57:34;2.38;;;2.17;;
51732;SDS011;39139;53.144;6.244;2023-06-05T06:00:00;1.83;;;1.73;;
51732;SDS011;39139;53.144;6.244;2023-06-05T06:02:26;2.05;;;1.77;;
51732;SDS011;39139;53.144;6.244;2023-06-05T06:04:53;2.10;;;1.90;;
51732;SDS011;39139;53.144;6.244;2023-06-05T06:07:18;3.80;;;2.10;;
51732;SDS011;39139;53.144;6.244;2023-06-05T06:09:44;1.83;;;1.73;;
51732;SDS011;39139;53.144;6.244;2023-06-05T06:12:10;2.53;;;2.33;;
51732;SDS011;39139;53.144;6.244;2023-06-05T06:14:36;2.42;;;2.17;;
51732;SDS011;39139;53.144;6.244;2023-06-05T06:17:01;1.90;;;1.80;;
51732;SDS011;39139;53.144;6.244;2023-06-05T06:19:29;3.25;;;1.90;;
51732;SDS011;39139;53.144;6.244;2023-06-05T06:21:58;2.20;;;1.80;;
51732;SDS011;39139;53.144;6.244;2023-06-05T06:24:23;2.47;;;1.83;;
51732;SDS011;39139;53.144;6.244;2023-06-05T06:26:49;2.05;;;1.75;;
51732;SDS011;39139;53.144;6.244;2023-06-05T06:29:20;3.47;;;2.00;;
51732;SDS011;39139;53.144;6.244;2023-06-05T06:31:48;7.78;;;3.10;;
51732;SDS011;39139;53.144;6.244;2023-06-05T06:34:15;3.13;;;2.33;;
51732;SDS011;39139;53.144;6.244;2023-06-05T06:36:41;2.42;;;2.22;;
51732;SDS011;39139;53.144;6.244;2023-06-05T06:39:09;3.47;;;1.90;;
51732;SDS011;39139;53.144;6.244;2023-06-05T06:41:35;1.77;;;1.67;;
51732;SDS011;39139;53.144;6.244;2023-06-05T06:44:02;2.42;;;2.15;;
51732;SDS011;39139;53.144;6.244;2023-06-05T06:46:28;3.30;;;2.00;;
51732;SDS011;39139;53.144;6.244;2023-06-05T06:48:53;2.67;;;2.03;;
51732;SDS011;39139;53.144;6.244;2023-06-05T06:51:19;3.47;;;2.55;;
51732;SDS011;39139;53.144;6.244;2023-06-05T06:53:47;1.98;;;1.88;;
51732;SDS011;39139;53.144;6.244;2023-06-05T06:56:13;3.92;;;2.13;;
51732;SDS011;39139;53.144;6.244;2023-06-05T07:01:08;3.20;;;2.13;;
51732;SDS011;39139;53.144;6.244;2023-06-05T07:03:35;2.28;;;2.10;;
51732;SDS011;39139;53.144;6.244;2023-06-05T07:06:01;2.80;;;2.60;;
51732;SDS011;39139;53.144;6.244;2023-06-05T07:08:27;5.10;;;2.45;;
51732;SDS011;39139;53.144;6.244;2023-06-05T07:10:53;2.22;;;2.05;;
51732;SDS011;39139;53.144;6.244;2023-06-05T07:13:22;2.85;;;2.20;;
51732;SDS011;39139;53.144;6.244;2023-06-05T07:15:48;2.78;;;2.58;;
51732;SDS011;39139;53.144;6.244;2023-06-05T07:18:14;4.32;;;2.25;;
51732;SDS011;39139;53.144;6.244;2023-06-05T07:20:42;4.78;;;1.92;;
51732;SDS011;39139;53.144;6.244;2023-06-05T07:23:07;4.20;;;2.20;;
51732;SDS011;39139;53.144;6.244;2023-06-05T07:25:33;3.13;;;2.83;;
51732;SDS011;39139;53.144;6.244;2023-06-05T07:27:59;2.60;;;2.40;;
51732;SDS011;39139;53.144;6.244;2023-06-05T07:30:28;3.20;;;2.30;;
51732;SDS011;39139;53.144;6.244;2023-06-05T07:32:54;3.10;;;2.40;;
51732;SDS011;39139;53.144;6.244;2023-06-05T07:35:20;2.00;;;1.90;;
51732;SDS011;39139;53.144;6.244;2023-06-05T07:37:46;8.50;;;2.92;;
51732;SDS011;39139;53.144;6.244;2023-06-05T07:40:12;3.80;;;2.38;;
51732;SDS011;39139;53.144;6.244;2023-06-05T07:42:38;2.70;;;2.35;;
51732;SDS011;39139;53.144;6.244;2023-06-05T07:45:03;3.20;;;2.50;;
51732;SDS011;39139;53.144;6.244;2023-06-05T07:47:30;3.70;;;2.95;;
51732;SDS011;39139;53.144;6.244;2023-06-05T07:49:59;3.17;;;2.90;;
51732;SDS011;39139;53.144;6.244;2023-06-05T07:52:26;3.63;;;2.75;;
51732;SDS011;39139;53.144;6.244;2023-06-05T07:54:52;2.80;;;2.60;;
51732;SDS011;39139;53.144;6.244;2023-06-05T07:57:18;2.90;;;2.70;;
51732;SDS011;39139;53.144;6.244;2023-06-05T07:59:44;5.80;;;3.42;;
51732;SDS011;39139;53.144;6.244;2023-06-05T08:02:11;4.78;;;3.17;;
51732;SDS011;39139;53.144;6.244;2023-06-05T08:04:37;3.83;;;2.78;;
51732;SDS011;39139;53.144;6.244;2023-06-05T08:07:04;3.30;;;3.00;;
51732;SDS011;39139;53.144;6.244;2023-06-05T08:09:30;3.63;;;3.30;;
51732;SDS011;39139;53.144;6.244;2023-06-05T08:11:55;3.10;;;2.83;;
51732;SDS011;39139;53.144;6.244;2023-06-05T08:14:21;2.80;;;2.60;;
51732;SDS011;39139;53.144;6.244;2023-06-05T08:16:47;3.50;;;3.30;;
51732;SDS011;39139;53.144;6.244;2023-06-05T08:19:12;2.97;;;2.08;;
51732;SDS011;39139;53.144;6.244;2023-06-05T08:21:38;3.15;;;2.85;;
51732;SDS011;39139;53.144;6.244;2023-06-05T08:24:04;3.05;;;2.42;;
51732;SDS011;39139;53.144;6.244;2023-06-05T08:26:29;2.47;;;2.38;;
51732;SDS011;39139;53.144;6.244;2023-06-05T08:28:55;2.53;;;2.13;;
51732;SDS011;39139;53.144;6.244;2023-06-05T08:31:21;2.67;;;2.30;;
51732;SDS011;39139;53.144;6.244;2023-06-05T08:33:46;2.47;;;2.28;;
51732;SDS011;39139;53.144;6.244;2023-06-05T08:36:12;2.15;;;2.05;;
51732;SDS011;39139;53.144;6.244;2023-06-05T08:38:38;2.17;;;1.98;;
51732;SDS011;39139;53.144;6.244;2023-06-05T08:41:04;4.32;;;2.75;;
51732;SDS011;39139;53.144;6.244;2023-06-05T08:43:35;4.00;;;3.00;;
51732;SDS011;39139;53.144;6.244;2023-06-05T08:46:05;4.13;;;2.30;;
51732;SDS011;39139;53.144;6.244;2023-06-05T08:48:33;3.60;;;2.33;;
51732;SDS011;39139;53.144;6.244;2023-06-05T08:51:06;5.05;;;2.08;;
51732;SDS011;39139;53.144;6.244;2023-06-05T08:53:34;3.40;;;2.85;;
51732;SDS011;39139;53.144;6.244;2023-06-05T08:56:01;2.72;;;2.53;;
51732;SDS011;39139;53.144;6.244;2023-06-05T08:58:26;2.45;;;2.25;;
51732;SDS011;39139;53.144;6.244;2023-06-05T09:00:52;3.67;;;2.35;;
51732;SDS011;39139;53.144;6.244;2023-06-05T09:03:18;7.15;;;2.20;;
51732;SDS011;39139;53.144;6.244;2023-06-05T09:05:46;3.17;;;2.72;;
51732;SDS011;39139;53.144;6.244;2023-06-05T09:08:13;3.28;;;2.28;;
51732;SDS011;39139;53.144;6.244;2023-06-05T09:10:40;2.65;;;2.03;;
51732;SDS011;39139;53.144;6.244;2023-06-05T09:13:06;3.05;;;2.50;;
51732;SDS011;39139;53.144;6.244;2023-06-05T09:15:32;4.47;;;2.05;;
51732;SDS011;39139;53.144;6.244;2023-06-05T09:18:06;3.20;;;1.65;;
51732;SDS011;39139;53.144;6.244;2023-06-05T09:20:33;1.80;;;1.33;;
51732;SDS011;39139;53.144;6.244;2023-06-05T09:23:01;2.08;;;1.98;;
51732;SDS011;39139;53.144;6.244;2023-06-05T09:28:24;2.35;;;1.67;;
51732;SDS011;39139;53.144;6.244;2023-06-05T09:30:53;2.28;;;2.10;;
51732;SDS011;39139;53.144;6.244;2023-06-05T09:33:24;2.30;;;1.90;;
51732;SDS011;39139;53.144;6.244;2023-06-05T09:36:04;4.20;;;2.60;;
51732;SDS011;39139;53.144;6.244;2023-06-05T09:38:31;2.47;;;2.30;;
51732;SDS011;39139;53.144;6.244;2023-06-05T09:41:07;2.80;;;2.38;;
51732;SDS011;39139;53.144;6.244;2023-06-05T09:43:36;2.47;;;2.20;;
51732;SDS011;39139;53.144;6.244;2023-06-05T09:46:21;2.88;;;2.67;;
51732;SDS011;39139;53.144;6.244;2023-06-05T09:48:52;5.22;;;2.63;;
51732;SDS011;39139;53.144;6.244;2023-06-05T09:51:22;3.00;;;2.63;;
51732;SDS011;39139;53.144;6.244;2023-06-05T09:53:48;2.40;;;2.20;;
51732;SDS011;39139;53.144;6.244;2023-06-05T09:56:15;3.47;;;2.53;;
51732;SDS011;39139;53.144;6.244;2023-06-05T09:58:46;2.65;;;1.80;;
51732;SDS011;39139;53.144;6.244;2023-06-05T10:01:16;4.30;;;3.00;;
51732;SDS011;39139;53.144;6.244;2023-06-05T10:06:35;1.92;;;1.83;;
51732;SDS011;39139;53.144;6.244;2023-06-05T10:09:02;3.33;;;2.08;;
51732;SDS011;39139;53.144;6.244;2023-06-05T10:11:28;2.60;;;2.42;;
51732;SDS011;39139;53.144;6.244;2023-06-05T10:13:54;2.83;;;2.40;;
51732;SDS011;39139;53.144;6.244;2023-06-05T10:16:25;2.47;;;2.28;;
51732;SDS011;39139;53.144;6.244;2023-06-05T10:18:53;3.00;;;2.55;;
51732;SDS011;39139;53.144;6.244;2023-06-05T10:21:22;2.47;;;1.70;;
51732;SDS011;39139;53.144;6.244;2023-06-05T10:23:49;2.50;;;2.40;;
51732;SDS011;39139;53.144;6.244;2023-06-05T10:37:56;2.47;;;2.28;;
51732;SDS011;39139;53.144;6.244;2023-06-05T10:40:34;1.98;;;1.88;;
51732;SDS011;39139;53.144;6.244;2023-06-05T10:51:46;4.35;;;2.67;;
51732;SDS011;39139;53.144;6.244;2023-06-05T10:57:05;3.42;;;1.90;;
51732;SDS011;39139;53.144;6.244;2023-06-05T11:07:26;2.53;;;2.30;;
51732;SDS011;39139;53.144;6.244;2023-06-05T11:10:03;1.88;;;1.77;;
51732;SDS011;39139;53.144;6.244;2023-06-05T11:15:13;3.15;;;1.95;;
51732;SDS011;39139;53.144;6.244;2023-06-05T11:17:40;1.58;;;1.48;;
51732;SDS011;39139;53.144;6.244;2023-06-05T11:27:53;2.42;;;2.22;;
51732;SDS011;39139;53.144;6.244;2023-06-05T11:30:25;2.60;;;1.70;;
51732;SDS011;39139;53.144;6.244;2023-06-05T11:32:54;2.97;;;2.10;;
51732;SDS011;39139;53.144;6.244;2023-06-05T11:35:26;2.55;;;2.35;;
51732;SDS011;39139;53.144;6.244;2023-06-05T11:38:14;2.67;;;2.47;;
51732;SDS011;39139;53.144;6.244;2023-06-05T11:40:39;2.25;;;1.98;;
51732;SDS011;39139;53.144;6.244;2023-06-05T11:43:06;2.13;;;2.00;;
51732;SDS011;39139;53.144;6.244;2023-06-05T11:45:34;3.13;;;1.75;;
51732;SDS011;39139;53.144;6.244;2023-06-05T11:48:05;2.00;;;1.58;;
51732;SDS011;39139;53.144;6.244;2023-06-05T11:50:38;2.40;;;1.67;;
51732;SDS011;39139;53.144;6.244;2023-06-05T11:53:16;2.00;;;1.80;;
51732;SDS011;39139;53.144;6.244;2023-06-05T11:55:41;3.20;;;1.55;;
51732;SDS011;39139;53.144;6.244;2023-06-05T11:58:22;2.83;;;2.35;;
51732;SDS011;39139;53.144;6.244;2023-06-05T12:00:48;2.78;;;2.15;;
51732;SDS011;39139;53.144;6.244;2023-06-05T12:03:18;3.80;;;1.90;;
51732;SDS011;39139;53.144;6.244;2023-06-05T12:05:47;2.28;;;2.03;;
51732;SDS011;39139;53.144;6.244;2023-06-05T12:10:54;2.80;;;2.55;;
51732;SDS011;39139;53.144;6.244;2023-06-05T12:16:08;2.28;;;2.17;;
51732;SDS011;39139;53.144;6.244;2023-06-05T12:18:34;2.25;;;2.15;;
51732;SDS011;39139;53.144;6.244;2023-06-05T12:21:00;3.63;;;1.80;;
51732;SDS011;39139;53.144;6.244;2023-06-05T12:23:28;3.15;;;2.35;;
51732;SDS011;39139;53.144;6.244;2023-06-05T12:28:31;2.40;;;2.20;;
51732;SDS011;39139;53.144;6.244;2023-06-05T12:30:57;3.90;;;2.50;;
51732;SDS011;39139;53.144;6.244;2023-06-05T12:33:23;3.25;;;1.90;;
51732;SDS011;39139;53.144;6.244;2023-06-05T12:36:02;3.53;;;1.83;;
51732;SDS011;39139;53.144;6.244;2023-06-05T12:38:36;1.95;;;1.83;;
51732;SDS011;39139;53.144;6.244;2023-06-05T12:41:03;3.15;;;2.35;;
51732;SDS011;39139;53.144;6.244;2023-06-05T12:43:31;2.53;;;2.33;;
51732;SDS011;39139;53.144;6.244;2023-06-05T12:45:57;2.63;;;2.28;;
51732;SDS011;39139;53.144;6.244;2023-06-05T12:48:23;2.15;;;2.05;;
51732;SDS011;39139;53.144;6.244;2023-06-05T12:50:50;2.95;;;2.33;;
51732;SDS011;39139;53.144;6.244;2023-06-05T12:53:16;2.65;;;2.45;;
51732;SDS011;39139;53.144;6.244;2023-06-05T12:55:43;2.33;;;2.13;;
51732;SDS011;39139;53.144;6.244;2023-06-05T12:58:08;3.63;;;2.40;;
51732;SDS011;39139;53.144;6.244;2023-06-05T13:00:34;2.72;;;2.53;;
51732;SDS011;39139;53.144;6.244;2023-06-05T13:03:01;2.60;;;2.40;;
51732;SDS011;39139;53.144;6.244;2023-06-05T13:05:28;2.85;;;2.60;;
51732;SDS011;39139;53.144;6.244;2023-06-05T13:07:56;2.35;;;2.20;;
51732;SDS011;39139;53.144;6.244;2023-06-05T13:10:22;2.30;;;2.13;;
51732;SDS011;39139;53.144;6.244;2023-06-05T13:12:48;2.92;;;2.17;;
51732;SDS011;39139;53.144;6.244;2023-06-05T13:15:14;2.42;;;2.00;;
51732;SDS011;39139;53.144;6.244;2023-06-05T13:17:39;2.45;;;2.22;;
51732;SDS011;39139;53.144;6.244;2023-06-05T13:20:06;2.33;;;2.13;;
51732;SDS011;39139;53.144;6.244;2023-06-05T13:22:36;2.75;;;2.55;;
51732;SDS011;39139;53.144;6.244;2023-06-05T13:25:03;2.30;;;2.20;;
51732;SDS011;39139;53.144;6.244;2023-06-05T13:27:30;2.45;;;2.35;;
51732;SDS011;39139;53.144;6.244;2023-06-05T13:29:56;3.13;;;2.78;;
51732;SDS011;39139;53.144;6.244;2023-06-05T13:32:22;2.65;;;2.50;;
51732;SDS011;39139;53.144;6.244;2023-06-05T13:34:48;3.97;;;3.40;;
51732;SDS011;39139;53.144;6.244;2023-06-05T13:37:14;3.88;;;3.47;;
51732;SDS011;39139;53.144;6.244;2023-06-05T13:39:40;4.50;;;4.10;;
51732;SDS011;39139;53.144;6.244;2023-06-05T13:42:06;3.42;;;3.22;;
51732;SDS011;39139;53.144;6.244;2023-06-05T13:44:32;4.03;;;3.72;;
51732;SDS011;39139;53.144;6.244;2023-06-05T13:46:59;5.00;;;4.20;;
51732;SDS011;39139;53.144;6.244;2023-06-05T13:49:28;4.25;;;3.95;;
51732;SDS011;39139;53.144;6.244;2023-06-05T13:51:56;3.80;;;3.40;;
51732;SDS011;39139;53.144;6.244;2023-06-05T13:54:22;6.18;;;5.20;;
51732;SDS011;39139;53.144;6.244;2023-06-05T13:56:48;5.28;;;4.18;;
51732;SDS011;39139;53.144;6.244;2023-06-05T13:59:17;4.28;;;3.88;;
51732;SDS011;39139;53.144;6.244;2023-06-05T14:01:43;5.43;;;4.47;;
51732;SDS011;39139;53.144;6.244;2023-06-05T14:04:09;4.75;;;4.30;;
51732;SDS011;39139;53.144;6.244;2023-06-05T14:06:35;5.85;;;5.05;;
51732;SDS011;39139;53.144;6.244;2023-06-05T14:09:05;4.63;;;4.22;;
51732;SDS011;39139;53.144;6.244;2023-06-05T14:11:31;6.22;;;4.47;;
51732;SDS011;39139;53.144;6.244;2023-06-05T14:13:57;5.78;;;4.57;;
51732;SDS011;39139;53.144;6.244;2023-06-05T14:16:24;4.25;;;3.95;;
51732;SDS011;39139;53.144;6.244;2023-06-05T14:18:50;6.20;;;5.60;;
51732;SDS011;39139;53.144;6.244;2023-06-05T14:21:16;5.60;;;4.68;;
51732;SDS011;39139;53.144;6.244;2023-06-05T14:23:45;4.97;;;4.57;;
51732;SDS011;39139;53.144;6.244;2023-06-05T14:26:11;6.00;;;4.80;;
51732;SDS011;39139;53.144;6.244;2023-06-05T14:28:38;5.25;;;4.70;;
51732;SDS011;39139;53.144;6.244;2023-06-05T14:31:04;4.90;;;4.50;;
51732;SDS011;39139;53.144;6.244;2023-06-05T14:33:30;5.57;;;3.90;;
51732;SDS011;39139;53.144;6.244;2023-06-05T14:35:55;3.72;;;3.40;;
51732;SDS011;39139;53.144;6.244;2023-06-05T14:38:21;3.45;;;3.15;;
51732;SDS011;39139;53.144;6.244;2023-06-05T14:40:46;5.78;;;4.88;;
51732;SDS011;39139;53.144;6.244;2023-06-05T14:43:15;4.38;;;3.95;;
51732;SDS011;39139;53.144;6.244;2023-06-05T14:45:41;4.07;;;2.80;;
51732;SDS011;39139;53.144;6.244;2023-06-05T14:48:07;4.95;;;4.55;;
51732;SDS011;39139;53.144;6.244;2023-06-05T14:50:36;3.92;;;3.63;;
51732;SDS011;39139;53.144;6.244;2023-06-05T14:53:02;4.93;;;3.60;;
51732;SDS011;39139;53.144;6.244;2023-06-05T14:55:28;4.25;;;3.85;;
51732;SDS011;39139;53.144;6.244;2023-06-05T14:57:54;4.35;;;3.95;;
51732;SDS011;39139;53.144;6.244;2023-06-05T15:00:20;4.30;;;3.90;;
51732;SDS011;39139;53.144;6.244;2023-06-05T15:02:45;5.00;;;4.55;;
51732;SDS011;39139;53.144;6.244;2023-06-05T15:05:11;6.93;;;3.72;;
51732;SDS011;39139;53.144;6.244;2023-06-05T15:07:40;4.07;;;3.67;;
51732;SDS011;39139;53.144;6.244;2023-06-05T15:10:07;9.05;;;4.63;;
51732;SDS011;39139;53.144;6.244;2023-06-05T15:12:34;5.95;;;3.97;;
51732;SDS011;39139;53.144;6.244;2023-06-05T15:15:01;6.32;;;4.82;;
51732;SDS011;39139;53.144;6.244;2023-06-05T15:17:27;4.57;;;4.18;;
51732;SDS011;39139;53.144;6.244;2023-06-05T15:19:52;5.93;;;4.57;;
51732;SDS011;39139;53.144;6.244;2023-06-05T15:22:18;5.57;;;4.63;;
51732;SDS011;39139;53.144;6.244;2023-06-05T15:24:44;4.78;;;4.25;;
51732;SDS011;39139;53.144;6.244;2023-06-05T15:27:11;6.07;;;5.00;;
51732;SDS011;39139;53.144;6.244;2023-06-05T15:29:37;4.03;;;3.60;;
51732;SDS011;39139;53.144;6.244;2023-06-05T15:32:03;5.00;;;4.60;;
51732;SDS011;39139;53.144;6.244;2023-06-05T15:34:28;5.20;;;4.57;;
51732;SDS011;39139;53.144;6.244;2023-06-05T15:36:54;5.70;;;5.20;;
51732;SDS011;39139;53.144;6.244;2023-06-05T15:39:20;6.97;;;5.10;;
51732;SDS011;39139;53.144;6.244;2023-06-05T15:41:45;5.63;;;5.13;;
51732;SDS011;39139;53.144;6.244;2023-06-05T15:44:14;5.97;;;5.38;;
51732;SDS011;39139;53.144;6.244;2023-06-05T15:46:40;5.00;;;4.22;;
51732;SDS011;39139;53.144;6.244;2023-06-05T15:49:06;10.10;;;4.90;;
51732;SDS011;39139;53.144;6.244;2023-06-05T15:51:31;6.13;;;5.53;;